createdAt,value
2022-10-29T00:01:09.105Z,102340.69
2022-10-29T00:03:37.113Z,102339.50
2022-10-29T00:06:07.426Z,102331.31
2022-10-29T00:08:37.158Z,102331.69
2022-10-29T00:11:09.888Z,102334.41
2022-10-29T00:13:37.790Z,102328.81
2022-10-29T00:16:10.410Z,102333.34
2022-10-29T00:18:37.988Z,102336.69
2022-10-29T00:21:08.289Z,102337.97
2022-10-29T00:23:35.848Z,102332.72
2022-10-29T00:26:03.976Z,102333.41
2022-10-29T00:28:31.657Z,102337.53
2022-10-29T00:31:10.766Z,102332.47
2022-10-29T00:33:39.154Z,102337.09
2022-10-29T00:36:10.607Z,102336.34
2022-10-29T00:38:40.974Z,102338.22
2022-10-29T00:41:11.862Z,102344.22
2022-10-29T00:43:44.595Z,102350.66
2022-10-29T00:46:16.379Z,102332.00
2022-10-29T00:48:51.707Z,102350.84
2022-10-29T00:51:20.397Z,102342.00
2022-10-29T00:53:52.332Z,102350.00
2022-10-29T00:56:21.056Z,102350.44
2022-10-29T00:58:49.067Z,102360.75
2022-10-29T01:01:16.827Z,102357.00
2022-10-29T01:03:44.362Z,102353.78
2022-10-29T01:06:12.170Z,102352.44
2022-10-29T01:08:39.570Z,102357.41
2022-10-29T01:11:16.086Z,102359.78
2022-10-29T01:14:09.545Z,102359.78
2022-10-29T01:16:56.248Z,102363.31
2022-10-29T01:19:52.430Z,102368.28
2022-10-29T01:22:50.389Z,102367.47
2022-10-29T01:25:41.820Z,102368.53
2022-10-29T01:28:39.502Z,102363.88
2022-10-29T01:31:26.030Z,102362.34
2022-10-29T01:34:25.187Z,102375.59
2022-10-29T01:37:23.826Z,102373.03
2022-10-29T01:40:18.356Z,102371.81
2022-10-29T01:42:52.091Z,102372.50
2022-10-29T01:45:30.951Z,102366.34
2022-10-29T01:48:06.039Z,102376.13
2022-10-29T01:50:36.167Z,102384.63
2022-10-29T01:53:05.215Z,102379.78
2022-10-29T01:55:37.073Z,102380.63
2022-10-29T01:58:06.371Z,102392.19
2022-10-29T02:01:06.067Z,102389.25
2022-10-29T02:04:24.874Z,102384.25
2022-10-29T02:07:19.930Z,102386.59
2022-10-29T02:10:04.111Z,102383.31
2022-10-29T02:12:40.811Z,102383.59
2022-10-29T02:15:35.548Z,102398.53
2022-10-29T02:18:05.991Z,102386.38
2022-10-29T02:20:44.566Z,102388.34
2022-10-29T02:23:13.070Z,102392.25
2022-10-29T02:25:40.559Z,102386.50
2022-10-29T02:28:08.875Z,102395.66
2022-10-29T02:30:37.346Z,102399.75
2022-10-29T02:33:05.857Z,102405.47
2022-10-29T02:35:33.382Z,102393.63
2022-10-29T02:38:04.778Z,102398.91
2022-10-29T02:40:32.185Z,102401.44
2022-10-29T02:42:59.701Z,102402.97
2022-10-29T02:45:27.206Z,102401.88
2022-10-29T02:47:54.853Z,102400.75
2022-10-29T02:50:22.641Z,102397.41
2022-10-29T02:52:50.086Z,102405.06
2022-10-29T02:55:20.510Z,102400.34
2022-10-29T02:57:47.986Z,102408.00
2022-10-29T03:00:15.951Z,102391.59
2022-10-29T03:02:44.527Z,102404.16
2022-10-29T03:05:12.144Z,102397.47
2022-10-29T03:07:39.735Z,102407.22
2022-10-29T03:10:10.704Z,102406.25
2022-10-29T03:12:38.084Z,102404.81
2022-10-29T03:15:05.963Z,102404.16
2022-10-29T03:17:37.756Z,102405.81
2022-10-29T03:20:05.765Z,102401.31
2022-10-29T03:22:33.169Z,102401.88
2022-10-29T03:25:00.628Z,102407.47
2022-10-29T03:27:28.626Z,102399.69
2022-10-29T03:29:56.217Z,102398.16
2022-10-29T03:32:23.708Z,102407.34
2022-10-29T03:34:54.722Z,102406.66
2022-10-29T03:37:24.939Z,102408.06
2022-10-29T03:39:52.326Z,102410.28
2022-10-29T03:42:19.703Z,102415.56
2022-10-29T03:44:47.108Z,102414.75
2022-10-29T03:47:14.560Z,102417.69
2022-10-29T03:49:41.982Z,102420.59
2022-10-29T03:52:11.840Z,102419.63
2022-10-29T03:54:39.237Z,102425.78
2022-10-29T03:57:06.695Z,102424.94
2022-10-29T03:59:34.205Z,102434.13
2022-10-29T04:02:04.457Z,102445.16
2022-10-29T04:04:31.996Z,102435.25
2022-10-29T04:07:02.943Z,102443.75
2022-10-29T04:09:30.441Z,102444.03
2022-10-29T04:11:57.894Z,102445.72
2022-10-29T04:14:25.375Z,102448.78
2022-10-29T04:16:52.800Z,102444.59
2022-10-29T04:19:20.232Z,102450.59
2022-10-29T04:32:44.884Z,102446.97
2022-10-29T04:35:14.101Z,102449.34
2022-10-29T04:37:41.667Z,102454.34
2022-10-29T04:40:12.462Z,102453.25
2022-10-29T04:42:40.328Z,102461.75
2022-10-29T04:45:09.116Z,102466.34
2022-10-29T04:47:36.683Z,102463.44
2022-10-29T04:50:08.292Z,102467.34
2022-10-29T04:52:38.038Z,102467.72
2022-10-29T04:55:05.755Z,102474.16
2022-10-29T04:57:33.897Z,102476.50
2022-10-29T05:00:03.532Z,102479.16
2022-10-29T05:02:33.282Z,102485.03
2022-10-29T05:05:00.734Z,102469.53
2022-10-29T05:07:28.169Z,102485.31
2022-10-29T05:09:55.578Z,102485.88
2022-10-29T05:12:23.031Z,102480.84
2022-10-29T05:14:50.434Z,102485.88
2022-10-29T05:17:20.712Z,102493.25
2022-10-29T05:19:48.158Z,102497.88
2022-10-29T05:22:15.603Z,102500.53
2022-10-29T05:27:27.532Z,102501.50
2022-10-29T05:29:54.978Z,102503.84
2022-10-29T05:32:22.470Z,102510.81
2022-10-29T05:34:49.964Z,102510.16
2022-10-29T05:37:17.484Z,102506.78
2022-10-29T05:39:44.932Z,102504.41
2022-10-29T05:42:12.453Z,102514.56
2022-10-29T05:44:39.895Z,102515.41
2022-10-29T05:47:08.116Z,102513.22
2022-10-29T05:49:36.582Z,102513.22
2022-10-29T05:52:04.109Z,102510.69
2022-10-29T05:54:31.530Z,102517.41
2022-10-29T05:56:59.479Z,102509.00
2022-10-29T05:59:31.117Z,102517.41
2022-10-29T06:02:01.233Z,102511.50
2022-10-29T06:04:28.756Z,102515.00
2022-10-29T06:06:56.422Z,102522.69
2022-10-29T06:09:24.028Z,102516.00
2022-10-29T06:11:51.449Z,102510.97
2022-10-29T06:14:19.032Z,102514.03
2022-10-29T06:16:46.492Z,102515.03
2022-10-29T06:19:13.999Z,102509.19
2022-10-29T06:21:41.633Z,102504.53
2022-10-29T06:24:10.580Z,102501.06
2022-10-29T06:26:37.968Z,102504.41
2022-10-29T06:29:05.392Z,102506.22
2022-10-29T06:31:32.833Z,102499.81
2022-10-29T06:34:00.171Z,102505.00
2022-10-29T06:36:28.599Z,102499.56
2022-10-29T06:38:58.937Z,102508.47
2022-10-29T06:41:27.514Z,102497.88
2022-10-29T06:43:55.523Z,102497.03
2022-10-29T06:46:22.970Z,102505.09
2022-10-29T06:48:50.391Z,102503.72
2022-10-29T06:51:17.879Z,102506.50
2022-10-29T06:53:46.876Z,102498.56
2022-10-29T06:56:14.321Z,102505.09
2022-10-29T06:58:42.007Z,102500.63
2022-10-29T07:01:09.420Z,102499.66
2022-10-29T07:03:36.905Z,102501.22
2022-10-29T07:06:04.447Z,102508.44
2022-10-29T07:08:33.554Z,102507.06
2022-10-29T07:11:03.589Z,102506.53
2022-10-29T07:13:31.376Z,102507.34
2022-10-29T07:15:58.818Z,102507.38
2022-10-29T07:18:26.360Z,102512.34
2022-10-29T07:20:53.760Z,102511.66
2022-10-29T07:23:21.192Z,102519.06
2022-10-29T07:25:48.705Z,102512.09
2022-10-29T07:28:25.062Z,102515.56
2022-10-29T07:30:54.345Z,102518.19
2022-10-29T09:16:24.600Z,102513.78
2022-10-29T09:19:13.972Z,102513.34
2022-10-29T09:22:10.586Z,102503.44
2022-10-29T09:24:55.387Z,102511.41
2022-10-29T09:27:34.344Z,102505.66
2022-10-29T09:30:07.649Z,102496.47
2022-10-29T09:33:05.316Z,102491.31
2022-10-29T09:35:40.342Z,102492.41
2022-10-29T09:38:17.450Z,102487.53
2022-10-29T09:40:45.151Z,102495.09
2022-10-29T09:43:39.487Z,102499.38
2022-10-29T09:46:30.126Z,102499.25
2022-10-29T09:49:12.607Z,102498.41
2022-10-29T09:52:09.774Z,102499.97
2022-10-29T09:54:37.327Z,102494.78
2022-10-29T09:57:05.861Z,102485.03
2022-10-29T09:59:41.008Z,102495.50
2022-10-29T10:02:30.688Z,102489.34
2022-10-29T10:05:14.922Z,102490.31
2022-10-29T10:07:42.464Z,102490.72
2022-10-29T10:10:28.329Z,102489.63
2022-10-29T10:13:03.291Z,102486.69
2022-10-29T10:15:38.045Z,102480.31
2022-10-29T10:18:16.062Z,102469.41
2022-10-29T10:20:47.384Z,102475.97
2022-10-29T10:23:29.762Z,102481.97
2022-10-29T10:26:04.087Z,102467.34
2022-10-29T10:28:35.965Z,102475.53
2022-10-29T10:31:29.496Z,102473.88
2022-10-29T10:33:57.174Z,102469.97
2022-10-29T10:36:26.529Z,102471.09
2022-10-29T10:38:58.258Z,102468.88
2022-10-29T10:41:34.301Z,102473.31
2022-10-29T10:44:04.336Z,102462.72
2022-10-29T10:46:39.488Z,102466.34
2022-10-29T10:49:23.357Z,102472.34
2022-10-29T10:51:56.621Z,102465.78
2022-10-29T10:54:45.099Z,102469.28
2022-10-29T10:57:12.455Z,102463.69
2022-10-29T10:59:49.019Z,102445.16
2022-10-29T11:02:45.480Z,102461.06
2022-10-29T11:05:16.965Z,102458.28
2022-10-29T11:11:08.828Z,102461.88
2022-10-29T11:13:42.066Z,102455.50
2022-10-29T11:16:37.198Z,102449.63
2022-10-29T11:19:28.505Z,102453.25
2022-10-29T11:22:24.098Z,102454.47
2022-10-29T11:25:10.641Z,102451.00
2022-10-29T11:27:43.691Z,102446.13
2022-10-29T11:30:15.223Z,102453.66
2022-10-29T11:33:17.451Z,102441.94
2022-10-29T11:36:01.489Z,102450.19
2022-10-29T11:38:39.665Z,102444.31
2022-10-29T11:41:44.451Z,102446.00
2022-10-29T11:44:14.523Z,102438.31
2022-10-29T11:46:58.590Z,102435.69
2022-10-29T11:49:41.539Z,102434.84
2022-10-29T11:52:14.278Z,102439.88
2022-10-29T11:55:23.336Z,102440.97
2022-10-29T11:58:05.258Z,102441.25
2022-10-29T12:00:57.824Z,102435.41
2022-10-29T12:03:41.629Z,102434.00
2022-10-29T12:06:35.805Z,102434.97
2022-10-29T12:09:33.411Z,102436.91
2022-10-29T12:12:09.590Z,102433.16
2022-10-29T12:15:23.781Z,102436.78
2022-10-29T12:18:01.139Z,102430.94
2022-10-29T12:24:04.008Z,102433.47
2022-10-29T12:27:00.451Z,102426.19
2022-10-29T12:29:40.356Z,102423.84
2022-10-29T12:32:13.566Z,102418.69
2022-10-29T12:34:50.072Z,102413.66
2022-10-29T12:37:40.970Z,102419.78
2022-10-29T12:40:31.083Z,102418.38
2022-10-29T12:43:08.269Z,102423.53
2022-10-29T12:46:18.617Z,102423.28
2022-10-29T12:49:01.266Z,102414.22
2022-10-29T12:51:35.948Z,102425.34
2022-10-29T12:54:33.626Z,102417.97
2022-10-29T12:57:06.649Z,102424.94
2022-10-29T12:59:37.391Z,102429.81
2022-10-29T13:02:27.333Z,102423.13
2022-10-29T13:05:07.370Z,102418.13
2022-10-29T13:07:34.783Z,102417.66
2022-10-29T13:10:23.948Z,102427.59
2022-10-29T13:13:03.160Z,102428.69
2022-10-29T13:15:43.533Z,102421.84
2022-10-29T13:18:26.868Z,102417.97
2022-10-29T13:20:56.427Z,102413.66
2022-10-29T13:23:24.557Z,102411.00
2022-10-29T13:25:57.082Z,102409.47
2022-10-29T13:28:24.381Z,102400.28
2022-10-29T13:30:54.204Z,102401.38
2022-10-29T13:33:44.512Z,102392.72
2022-10-29T13:36:17.672Z,102392.47
2022-10-29T13:39:05.213Z,102397.06
2022-10-29T13:41:42.820Z,102389.38
2022-10-29T13:44:17.684Z,102398.59
2022-10-29T13:47:03.317Z,102391.38
2022-10-29T13:49:44.808Z,102388.00
2022-10-29T13:52:18.441Z,102401.13
2022-10-29T13:55:01.719Z,102399.00
2022-10-29T13:57:35.584Z,102401.06
2022-10-29T14:00:07.965Z,102397.88
2022-10-29T14:02:44.561Z,102400.53
2022-10-29T14:05:14.882Z,102400.53
2022-10-29T14:08:03.529Z,102397.03
2022-10-29T14:10:36.458Z,102403.19
2022-10-29T14:13:25.061Z,102411.13
2022-10-29T14:16:07.558Z,102413.88
2022-10-29T14:18:43.588Z,102414.47
2022-10-29T14:21:22.137Z,102408.88
2022-10-29T14:23:56.027Z,102412.94
2022-10-29T14:26:25.072Z,102403.59
2022-10-29T14:28:56.251Z,102408.75
2022-10-29T14:31:25.424Z,102393.97
2022-10-29T14:34:00.520Z,102394.41
2022-10-29T14:36:35.851Z,102399.13
2022-10-29T14:39:48.519Z,102393.44
2022-10-29T14:42:35.503Z,102391.50
2022-10-29T14:45:06.850Z,102380.75
2022-10-29T14:47:36.651Z,102384.78
2022-10-29T14:50:15.134Z,102391.06
2022-10-29T14:52:53.357Z,102391.75
2022-10-29T14:55:25.559Z,102384.38
2022-10-29T14:58:13.838Z,102382.28
2022-10-29T15:00:56.139Z,102383.81
2022-10-29T15:03:26.678Z,102382.53
2022-10-29T15:06:12.367Z,102383.38
2022-10-29T15:08:41.874Z,102388.84
2022-10-29T15:11:35.488Z,102387.72
2022-10-29T15:14:05.428Z,102375.88
2022-10-29T15:16:38.166Z,102381.56
2022-10-29T15:19:16.081Z,102382.53
2022-10-29T15:21:44.278Z,102378.78
2022-10-29T15:24:20.902Z,102376.16
2022-10-29T15:26:52.252Z,102382.72
2022-10-29T15:29:30.573Z,102381.16
2022-10-29T15:31:59.827Z,102377.13
2022-10-29T15:34:37.584Z,102380.75
2022-10-29T15:37:20.012Z,102375.56
2022-10-29T15:39:59.368Z,102385.75
2022-10-29T15:42:30.106Z,102376.25
2022-10-29T15:45:09.798Z,102391.03
2022-10-29T15:47:46.092Z,102385.16
2022-10-29T15:50:20.712Z,102370.00
2022-10-29T15:53:06.048Z,102376.25
2022-10-29T15:55:40.724Z,102385.16
2022-10-29T15:58:15.505Z,102378.19
2022-10-29T16:00:43.765Z,102380.31
2022-10-29T16:03:20.260Z,102370.69
2022-10-29T16:05:51.192Z,102375.41
2022-10-29T16:08:44.879Z,102363.97
2022-10-29T16:11:20.328Z,102368.69
2022-10-29T16:14:11.155Z,102360.94
2022-10-29T16:16:38.627Z,102367.59
2022-10-29T16:19:06.110Z,102361.91
2022-10-29T16:21:33.748Z,102342.81
2022-10-29T16:24:01.245Z,102352.72
2022-10-29T16:26:28.750Z,102346.75
2022-10-29T16:28:56.811Z,102347.41
2022-10-29T16:31:29.011Z,102349.94
2022-10-29T16:34:03.751Z,102340.16
2022-10-29T16:36:31.229Z,102338.63
2022-10-29T16:38:58.646Z,102335.47
2022-10-29T16:41:26.010Z,102336.16
2022-10-29T16:43:53.517Z,102324.16
2022-10-29T16:49:02.156Z,102331.53
2022-10-29T16:51:29.601Z,102329.34
2022-10-29T16:53:57.125Z,102329.19
2022-10-29T16:56:24.806Z,102326.97
2022-10-29T16:58:52.234Z,102321.25
2022-10-29T17:01:24.559Z,102321.78
2022-10-29T17:03:52.913Z,102325.28
2022-10-29T17:06:20.400Z,102323.06
2022-10-29T17:08:47.872Z,102316.63
2022-10-29T17:11:15.395Z,102322.50
2022-10-29T17:13:43.648Z,102323.34
2022-10-29T17:16:16.810Z,102319.72
2022-10-29T17:18:44.213Z,102319.72
2022-10-29T17:21:11.599Z,102311.66
2022-10-29T17:23:38.994Z,102315.97
2022-10-29T17:26:06.463Z,102307.72
2022-10-29T17:28:36.796Z,102302.19
2022-10-29T17:31:11.596Z,102301.22
2022-10-29T17:33:39.105Z,102298.69
2022-10-29T17:36:14.993Z,102299.78
2022-10-29T17:38:42.523Z,102297.97
2022-10-29T17:41:10.248Z,102291.97
2022-10-29T17:43:38.063Z,102283.38
2022-10-29T17:46:05.913Z,102278.75
2022-10-29T17:48:33.642Z,102285.59
2022-10-29T17:51:03.347Z,102285.47
2022-10-29T17:53:31.892Z,102281.28
2022-10-29T17:56:00.648Z,102272.38
2022-10-29T17:58:28.136Z,102282.94
2022-10-29T18:00:55.718Z,102274.75
2022-10-29T18:03:27.010Z,102269.31
2022-10-29T18:06:00.116Z,102272.09
2022-10-29T18:08:27.960Z,102262.63
2022-10-29T18:11:03.319Z,102269.69
2022-10-29T18:13:36.043Z,102259.41
2022-10-29T18:16:03.536Z,102253.13
2022-10-29T18:18:48.012Z,102263.00
2022-10-29T18:21:23.874Z,102256.47
2022-10-29T18:23:53.024Z,102252.03
2022-10-29T18:26:34.170Z,102248.69
2022-10-29T18:29:05.309Z,102246.72
2022-10-29T18:31:32.817Z,102250.06
2022-10-29T18:34:02.615Z,102250.06
2022-10-29T18:36:30.084Z,102243.78
2022-10-29T18:38:59.810Z,102237.00
2022-10-29T18:41:27.457Z,102245.88
2022-10-29T18:43:56.032Z,102236.69
2022-10-29T18:46:23.519Z,102238.94
2022-10-29T18:48:51.349Z,102240.59
2022-10-29T18:51:25.117Z,102228.94
2022-10-29T18:53:54.061Z,102236.84
2022-10-29T18:56:23.139Z,102232.38
2022-10-29T18:58:51.367Z,102226.28
2022-10-29T19:01:22.899Z,102225.56
2022-10-29T19:03:52.339Z,102225.97
2022-10-29T19:06:21.035Z,102218.19
2022-10-29T19:08:48.955Z,102227.66
2022-10-29T19:11:22.138Z,102217.91
2022-10-29T19:13:53.037Z,102219.00
2022-10-29T19:16:20.757Z,102213.19
2022-10-29T19:21:30.412Z,102205.66
2022-10-29T19:24:01.227Z,102206.38
2022-10-29T19:26:30.526Z,102207.22
2022-10-29T19:29:00.602Z,102203.84
2022-10-29T19:31:32.506Z,102199.53
2022-10-29T19:34:02.060Z,102200.66
2022-10-29T19:36:30.761Z,102195.53
2022-10-29T19:38:59.315Z,102192.44
2022-10-29T19:41:27.392Z,102194.38
2022-10-29T19:44:04.090Z,102191.91
2022-10-29T19:46:31.732Z,102187.88
2022-10-29T19:48:59.574Z,102184.81
2022-10-29T19:51:29.517Z,102173.94
2022-10-29T19:53:58.866Z,102180.22
2022-10-29T19:56:29.128Z,102173.41
2022-10-29T19:58:56.564Z,102161.84
2022-10-29T20:01:25.245Z,102167.28
2022-10-29T20:03:54.119Z,102159.31
2022-10-29T20:06:21.670Z,102152.81
2022-10-29T20:08:49.052Z,102153.50
2022-10-29T20:11:16.528Z,102146.69
2022-10-29T20:13:43.935Z,102146.13
2022-10-29T20:16:15.835Z,102143.63
2022-10-29T20:18:46.598Z,102145.44
2022-10-29T20:21:14.123Z,102130.81
2022-10-29T20:23:42.038Z,102131.53
2022-10-29T20:26:10.090Z,102132.22
2022-10-29T20:28:37.883Z,102124.44
2022-10-29T20:31:17.449Z,102129.72
2022-10-29T20:33:51.573Z,102131.91
2022-10-29T20:36:23.839Z,102123.72
2022-10-29T20:38:55.259Z,102122.63
2022-10-29T20:41:22.887Z,102113.97
2022-10-29T20:43:59.180Z,102094.22
2022-10-29T20:46:27.237Z,102096.88
2022-10-29T20:48:54.968Z,102097.84
2022-10-29T20:51:23.348Z,102087.50
2022-10-29T20:53:51.805Z,102084.19
2022-10-29T20:56:24.615Z,102073.63
2022-10-29T20:58:52.090Z,102068.59
2022-10-29T21:01:21.394Z,102071.81
2022-10-29T21:03:52.736Z,102067.78
2022-10-29T21:06:20.563Z,102056.63
2022-10-29T21:08:49.661Z,102054.41
2022-10-29T21:11:18.917Z,102055.66
2022-10-29T21:13:48.256Z,102056.34
2022-10-29T21:16:18.314Z,102056.94
2022-10-29T21:18:48.925Z,102046.38
2022-10-29T21:21:17.254Z,102050.97
2022-10-29T21:23:45.069Z,102036.47
2022-10-29T21:26:18.199Z,102035.47
2022-10-29T21:28:45.897Z,102030.63
2022-10-29T21:31:13.423Z,102038.94
2022-10-29T21:33:40.960Z,102031.84
2022-10-29T21:36:10.028Z,102034.06
2022-10-29T21:38:37.448Z,102033.78
2022-10-29T21:41:04.941Z,102031.53
2022-10-29T21:43:32.762Z,102034.88
2022-10-29T21:46:00.548Z,102025.97
2022-10-29T21:48:29.155Z,102020.22
2022-10-29T21:51:05.855Z,102017.56
2022-10-29T21:53:33.463Z,102011.44
2022-10-29T21:56:05.434Z,102009.78
2022-10-29T21:58:33.504Z,102006.16
2022-10-29T22:01:14.421Z,101999.38
2022-10-29T22:03:44.113Z,101989.44
2022-10-29T22:06:18.786Z,101989.31
2022-10-29T22:08:52.209Z,101989.44
2022-10-29T22:14:09.770Z,101972.91
2022-10-29T22:16:37.173Z,101970.50
2022-10-29T22:19:04.733Z,101965.22
2022-10-29T22:21:32.770Z,101955.03
2022-10-29T22:24:00.269Z,101956.84
2022-10-29T22:26:30.032Z,101950.88
2022-10-29T22:28:57.577Z,101945.13
2022-10-29T22:31:31.854Z,101936.19
2022-10-29T22:33:59.403Z,101936.88
2022-10-29T22:36:28.440Z,101928.13
2022-10-29T22:38:57.567Z,101932.28
2022-10-29T22:41:28.861Z,101928.81
2022-10-29T22:44:00.501Z,101918.00
2022-10-29T22:46:30.415Z,101920.94
2022-10-29T22:48:58.059Z,101911.19
2022-10-29T22:51:27.819Z,101914.81
2022-10-29T22:53:58.440Z,101906.59
2022-10-29T22:56:37.407Z,101898.31
2022-10-29T22:59:07.544Z,101908.06
2022-10-29T23:01:40.581Z,101904.44
2022-10-29T23:04:12.096Z,101909.44
2022-10-29T23:06:42.542Z,101889.66
2022-10-29T23:09:09.996Z,101884.38
2022-10-29T23:11:39.492Z,101879.44
2022-10-29T23:14:07.373Z,101870.53
2022-10-29T23:16:39.023Z,101870.25
2022-10-29T23:19:07.004Z,101868.63
2022-10-29T23:21:34.575Z,101870.31
2022-10-29T23:24:02.431Z,101869.03
2022-10-29T23:26:29.954Z,101862.38
2022-10-29T23:28:57.787Z,101854.13
2022-10-29T23:31:27.436Z,101852.81
2022-10-29T23:33:56.730Z,101844.88
2022-10-29T23:36:26.201Z,101845.41
2022-10-29T23:38:58.702Z,101833.03
2022-10-29T23:41:27.791Z,101830.06
2022-10-29T23:43:55.715Z,101817.66
2022-10-29T23:46:23.418Z,101817.50
2022-10-29T23:49:05.677Z,101802.91
2022-10-29T23:54:05.560Z,101802.97
2022-10-29T23:56:33.066Z,101799.03
2022-10-29T23:59:00.494Z,101785.81
